Time;durP1;ratioP1;P1;durP2;ratioP2;P2;SDS_P1;SDS_P2;PMS_P1;PMS_P2;Temp;Humidity;BMP_temperature;BMP_pressure;BME280_temperature;BME280_humidity;BME280_pressure;Samples;Min_cycle;Max_cycle;Signal;HPM_P1;HPM_P2
2022/03/06 00:01:15;;;;;;;;;91.67;81.67;;;;;11.07;48.29;101524.53;5059850;28;45385;-49
2022/03/06 00:03:40;;;;;;;;;92.33;76.00;;;;;11.06;48.15;101533.31;5061166;28;45231;-51
2022/03/06 00:06:05;;;;;;;;;98.33;79.00;;;;;11.04;48.23;101527.16;5059341;28;46484;-52
2022/03/06 00:08:32;;;;;;;;;90.67;77.67;;;;;11.01;48.45;101525.44;5059534;28;45442;-51
2022/03/06 00:10:57;;;;;;;;;90.00;76.00;;;;;11.00;48.24;101526.31;5060750;28;45332;-49
2022/03/06 00:13:23;;;;;;;;;91.00;79.00;;;;;10.98;48.49;101528.09;5059762;28;45501;-52
2022/03/06 00:15:49;;;;;;;;;95.67;82.33;;;;;10.96;48.46;101534.22;5060509;28;47076;-54
2022/03/06 00:18:14;;;;;;;;;91.00;76.67;;;;;10.89;48.49;101523.72;5060884;28;45230;-49
2022/03/06 00:20:43;;;;;;;;;85.67;72.67;;;;;10.89;48.51;101525.47;5059337;28;45268;-51
2022/03/06 00:23:09;;;;;;;;;88.67;77.67;;;;;10.87;48.58;101527.25;5060891;28;45311;-50
2022/03/06 00:25:34;;;;;;;;;87.00;75.33;;;;;10.86;48.58;101536.00;5060353;28;45423;-49
2022/03/06 00:28:00;;;;;;;;;84.00;75.67;;;;;10.83;48.59;101534.25;5060097;28;45313;-50
2022/03/06 00:30:26;;;;;;;;;91.00;74.33;;;;;10.82;48.48;101539.53;5060106;28;45360;-50
2022/03/06 00:32:51;;;;;;;;;84.33;70.67;;;;;10.79;48.62;101540.41;5060614;28;45546;-49
2022/03/06 00:35:17;;;;;;;;;89.67;75.33;;;;;10.77;48.65;101533.38;5063672;28;45430;-49
2022/03/06 00:37:42;;;;;;;;;90.67;76.33;;;;;10.73;48.58;101538.66;5060581;28;45280;-49
2022/03/06 00:40:08;;;;;;;;;90.67;76.67;;;;;10.71;48.44;101542.16;5060315;28;45312;-49
2022/03/06 00:42:34;;;;;;;;;86.33;75.67;;;;;10.68;48.51;101535.16;5060464;28;45276;-49
2022/03/06 00:45:00;;;;;;;;;85.00;70.33;;;;;10.64;48.73;101533.44;5058964;28;47536;-52
2022/03/06 00:47:25;;;;;;;;;91.00;72.00;;;;;10.63;48.77;101541.28;5060457;28;45222;-48
2022/03/06 00:49:51;;;;;;;;;85.33;77.00;;;;;10.61;48.87;101538.69;5060449;28;45579;-49
2022/03/06 00:52:17;;;;;;;;;85.00;74.33;;;;;10.59;48.66;101536.94;5060197;28;45465;-49
2022/03/06 00:54:42;;;;;;;;;88.67;75.00;;;;;10.55;48.61;101534.31;5059889;28;45993;-51
2022/03/06 00:57:08;;;;;;;;;82.67;73.00;;;;;10.54;48.78;101537.81;5060229;28;45273;-52
2022/03/06 00:59:34;;;;;;;;;87.33;73.67;;;;;10.53;48.87;101545.72;5058857;28;45414;-49
2022/03/06 01:02:02;;;;;;;;;87.00;71.00;;;;;10.50;48.65;101537.81;5058909;28;45342;-51
2022/03/06 01:04:27;;;;;;;;;85.33;72.00;;;;;10.49;48.75;101538.69;5059895;28;45281;-48
2022/03/06 01:06:53;;;;;;;;;84.00;73.00;;;;;10.46;48.91;101541.34;5059718;28;45318;-50
2022/03/06 01:09:18;;;;;;;;;87.33;75.33;;;;;10.37;48.77;101537.81;5059809;28;45166;-51
2022/03/06 01:11:43;;;;;;;;;84.00;67.67;;;;;10.42;48.85;101547.47;5059918;28;45553;-52
2022/03/06 01:14:09;;;;;;;;;84.33;68.33;;;;;10.41;48.78;101543.94;5059612;28;45962;-51
2022/03/06 01:16:34;;;;;;;;;77.25;61.00;;;;;10.40;48.63;101547.44;5059930;28;45295;-52
2022/03/06 01:19:00;;;;;;;;;79.33;65.00;;;;;10.37;48.62;101544.84;5058919;28;45268;-52
2022/03/06 01:21:25;;;;;;;;;81.75;64.25;;;;;10.34;48.60;101548.31;5059750;28;45359;-51
2022/03/06 01:23:51;;;;;;;;;83.00;69.50;;;;;10.33;48.68;101549.19;5059485;28;45318;-52
2022/03/06 01:26:18;;;;;;;;;80.75;66.75;;;;;10.33;48.68;101549.19;5059909;28;45252;-51
2022/03/06 01:28:43;;;;;;;;;80.00;63.75;;;;;10.32;48.66;101546.56;5059783;28;45286;-52
2022/03/06 01:31:09;;;;;;;;;76.50;60.50;;;;;10.28;48.67;101540.44;5058441;28;45490;-52
2022/03/06 01:33:34;;;;;;;;;80.50;65.00;;;;;10.24;48.80;101541.31;5059525;28;46225;-53
2022/03/06 01:36:00;;;;;;;;;82.67;66.00;;;;;10.22;48.57;101537.81;5063279;28;45351;-52
2022/03/06 01:38:25;;;;;;;;;80.75;66.75;;;;;10.19;48.67;101541.31;5059760;28;45327;-52
2022/03/06 01:40:51;;;;;;;;;81.75;68.75;;;;;10.17;48.75;101536.94;5061534;28;45252;-53
2022/03/06 01:43:16;;;;;;;;;77.25;60.00;;;;;10.12;48.71;101544.81;5063096;28;45655;-52
2022/03/06 01:45:41;;;;;;;;;82.00;66.67;;;;;10.12;48.73;101546.56;5061802;28;45395;-52
2022/03/06 01:48:08;;;;;;;;;83.50;68.25;;;;;10.10;48.46;101549.19;5063375;28;45277;-53
2022/03/06 01:50:34;;;;;;;;;80.25;62.50;;;;;10.05;48.40;101541.31;5063131;28;45512;-53
2022/03/06 01:53:02;;;;;;;;;79.75;59.50;;;;;10.04;48.72;101538.69;5062865;28;46208;-50
2022/03/06 01:55:28;;;;;;;;;77.00;61.75;;;;;10.01;48.29;101539.56;5062855;28;45336;-50
2022/03/06 01:57:59;;;;;;;;;78.50;60.25;;;;;9.99;48.28;101536.03;5063122;28;45380;-50
2022/03/06 02:00:28;;;;;;;;;80.75;62.25;;;;;9.96;48.24;101540.41;5063141;28;45351;-48
2022/03/06 02:02:54;;;;;;;;;76.50;60.00;;;;;9.91;48.19;101535.16;5062724;28;45354;-52
2022/03/06 02:05:19;;;;;;;;;79.75;62.25;;;;;9.88;48.27;101543.91;5061210;28;45423;-52
2022/03/06 02:07:45;;;;;;;;;72.50;57.75;;;;;9.84;48.35;101544.78;5062813;28;45458;-51
2022/03/06 02:10:11;;;;;;;;;77.75;61.00;;;;;9.80;48.34;101544.75;5062564;28;45397;-51
2022/03/06 02:12:37;;;;;;;;;77.75;60.00;;;;;9.77;48.37;101545.63;5062490;28;46212;-52
2022/03/06 02:15:06;;;;;;;;;75.00;59.75;;;;;9.73;48.29;101541.25;5061449;28;45357;-52
2022/03/06 02:17:31;;;;;;;;;77.75;61.75;;;;;9.69;48.34;101550.88;5062577;28;45328;-53
2022/03/06 02:20:00;;;;;;;;;74.75;57.50;;;;;9.66;48.41;101543.00;5062467;28;45520;-52
2022/03/06 02:22:28;;;;;;;;;77.50;63.50;;;;;9.64;48.28;101544.72;5061153;28;47175;-52
2022/03/06 02:24:53;;;;;;;;;79.00;59.75;;;;;9.60;48.33;101542.97;5062468;28;45264;-53
2022/03/06 02:27:19;;;;;;;;;74.75;57.00;;;;;9.56;48.20;101541.22;5062717;28;45238;-51
2022/03/06 02:29:46;;;;;;;;;78.25;60.75;;;;;9.53;48.03;101547.31;5061128;28;45290;-51
2022/03/06 02:32:14;;;;;;;;;74.75;57.00;;;;;9.50;48.14;101538.59;5062398;28;45369;-49
2022/03/06 02:34:42;;;;;;;;;77.75;60.00;;;;;9.45;48.22;101538.56;5066127;28;45335;-52
2022/03/06 02:37:08;;;;;;;;;81.50;62.50;;;;;9.41;48.36;101542.06;5062232;28;45266;-53
2022/03/06 02:39:34;;;;;;;;;77.50;60.00;;;;;9.38;48.33;101537.66;5062100;28;45264;-52
2022/03/06 02:42:01;;;;;;;;;80.33;62.00;;;;;9.33;48.28;101544.63;5062346;28;46045;-49
2022/03/06 02:44:27;;;;;;;;;80.25;60.00;;;;;9.29;48.12;101542.00;5062191;28;45225;-53
2022/03/06 02:46:53;;;;;;;;;79.25;63.75;;;;;9.24;48.00;101539.34;5061154;28;45280;-48
2022/03/06 02:49:18;;;;;;;;;83.00;63.50;;;;;9.22;48.33;101541.06;5062030;28;45505;-50
2022/03/06 02:51:45;;;;;;;;;80.75;61.75;;;;;9.18;47.98;101545.47;5060900;28;45954;-52
2022/03/06 02:54:17;;;;;;;;;74.75;58.50;;;;;9.16;48.07;101541.09;5061906;28;45330;-49
2022/03/06 02:56:45;;;;;;;;;80.50;62.75;;;;;9.11;48.13;101544.53;5062191;28;45375;-50
2022/03/06 02:59:10;;;;;;;;;79.00;59.25;;;;;9.08;48.00;101541.91;5061973;28;45285;-49
2022/03/06 03:01:40;;;;;;;;;73.50;55.75;;;;;9.04;48.24;101532.28;5060561;28;46139;-53
2022/03/06 03:04:06;;;;;;;;;80.75;63.75;;;;;9.01;48.19;101536.63;5061891;28;45255;-51
2022/03/06 03:06:32;;;;;;;;;79.75;64.00;;;;;8.97;48.10;101546.22;5061892;28;45285;-52
2022/03/06 03:08:58;;;;;;;;;78.25;59.50;;;;;8.95;48.22;101542.72;5061454;28;45402;-49
2022/03/06 03:11:24;;;;;;;;;77.75;57.75;;;;;8.93;48.06;101539.19;5060369;28;46111;-51
2022/03/06 03:13:49;;;;;;;;;75.75;60.75;;;;;8.89;47.91;101546.19;5061697;28;45338;-52
2022/03/06 03:16:15;;;;;;;;;77.50;58.50;;;;;8.86;48.07;101540.91;5061986;28;45343;-52
2022/03/06 03:18:40;;;;;;;;;77.75;59.00;;;;;8.83;48.04;101547.88;5061701;28;45378;-52
2022/03/06 03:21:06;;;;;;;;;76.75;59.25;;;;;8.80;47.98;101545.25;5061445;28;45536;-52
2022/03/06 03:23:31;;;;;;;;;77.50;59.75;;;;;8.75;48.12;101556.59;5061471;28;45339;-51
2022/03/06 03:25:56;;;;;;;;;80.25;62.00;;;;;8.70;47.97;101549.56;5061818;28;45346;-50
2022/03/06 03:28:22;;;;;;;;;81.00;61.25;;;;;8.66;48.17;101548.66;5061521;28;45361;-52
2022/03/06 03:30:47;;;;;;;;;81.25;63.25;;;;;8.62;48.14;101550.38;5061512;28;46120;-49
2022/03/06 03:33:13;;;;;;;;;77.75;60.50;;;;;8.58;48.30;101556.47;5060126;28;45501;-53
2022/03/06 03:35:38;;;;;;;;;75.50;57.50;;;;;8.55;48.25;101552.94;5064704;28;45319;-52
2022/03/06 03:38:04;;;;;;;;;75.75;59.75;;;;;8.50;48.20;101554.66;5061305;28;45458;-51
2022/03/06 03:40:30;;;;;;;;;78.75;60.00;;;;;8.48;47.99;101557.28;5061055;28;45551;-51
2022/03/06 03:42:55;;;;;;;;;80.00;60.50;;;;;8.43;48.29;101556.34;5061305;28;45232;-52
2022/03/06 03:45:20;;;;;;;;;77.25;59.75;;;;;8.38;47.89;101553.66;5061656;28;45216;-52
2022/03/06 03:47:46;;;;;;;;;75.00;58.50;;;;;8.36;48.20;101554.53;5043207;28;45455;-52
2022/03/06 03:50:12;;;;;;;;;79.25;60.25;;;;;8.32;48.26;101556.22;5061034;28;46328;-52
2022/03/06 03:52:37;;;;;;;;;77.25;59.00;;;;;8.29;48.01;101556.22;5061105;28;45459;-53
2022/03/06 03:55:04;;;;;;;;;73.00;58.00;;;;;8.25;48.25;101554.41;5061319;28;45435;-52
2022/03/06 03:57:29;;;;;;;;;76.50;60.25;;;;;8.22;48.00;101554.41;5061028;28;45495;-53
2022/03/06 03:59:54;;;;;;;;;56.50;39.25;;;;;8.19;48.28;101555.25;5061086;28;45442;-51
2022/03/06 04:02:20;;;;;;;;;78.50;60.25;;;;;8.14;48.12;101551.72;5076543;28;45369;-52
2022/03/06 04:04:45;;;;;;;;;76.50;58.75;;;;;8.12;48.25;101554.31;5061070;28;45375;-52
2022/03/06 04:07:11;;;;;;;;;77.50;60.00;;;;;8.09;48.01;101563.91;5060613;28;45501;-50
2022/03/06 04:09:36;;;;;;;;;75.25;58.75;;;;;8.05;48.05;101562.09;5060878;28;45374;-51
2022/03/06 04:12:01;;;;;;;;;77.50;59.00;;;;;7.99;48.12;101565.56;5059474;28;45256;-50
2022/03/06 04:14:27;;;;;;;;;78.25;58.50;;;;;7.96;47.95;101574.25;5059781;28;45307;-50
2022/03/06 04:16:52;;;;;;;;;75.75;59.25;;;;;7.94;48.39;101575.09;5060746;28;45607;-51
2022/03/06 04:19:18;;;;;;;;;73.50;58.50;;;;;7.89;48.20;101577.66;5059733;28;45224;-53
2022/03/06 04:21:43;;;;;;;;;75.50;59.25;;;;;7.87;48.22;101592.47;5060515;28;45259;-53
2022/03/06 04:24:09;;;;;;;;;77.00;59.25;;;;;7.84;48.31;101588.97;5060952;28;45334;-51
2022/03/06 04:26:35;;;;;;;;;80.50;60.25;;;;;7.79;48.21;101587.16;5059395;28;45304;-52
2022/03/06 04:29:00;;;;;;;;;78.25;59.00;;;;;7.76;48.33;101584.50;5060741;28;45290;-53
2022/03/06 04:31:27;;;;;;;;;72.00;56.75;;;;;7.72;48.21;101587.97;5059406;28;45427;-53
2022/03/06 04:33:53;;;;;;;;;75.75;58.00;;;;;7.70;48.26;101592.28;5060813;28;45345;-51
2022/03/06 04:36:18;;;;;;;;;74.50;55.75;;;;;7.69;48.41;101603.63;5063844;28;45265;-53
2022/03/06 04:38:44;;;;;;;;;77.50;59.50;;;;;7.65;48.15;101599.22;5060582;28;45331;-52
2022/03/06 04:41:09;;;;;;;;;75.75;59.50;;;;;7.63;48.47;101603.53;5060308;28;45326;-57
2022/03/06 04:43:35;;;;;;;;;77.25;60.25;;;;;7.62;48.15;101605.28;5060598;28;45667;-52
2022/03/06 04:46:01;;;;;;;;;76.00;59.00;;;;;7.60;48.22;101601.75;5060448;28;45343;-51
2022/03/06 04:48:26;;;;;;;;;76.75;58.00;;;;;7.56;48.14;101604.31;5059038;28;46114;-52
2022/03/06 04:50:51;;;;;;;;;79.25;60.75;;;;;7.55;48.22;101603.44;5060037;28;45359;-52
2022/03/06 04:53:17;;;;;;;;;77.00;59.75;;;;;7.53;48.30;101613.00;5060552;28;45347;-49
2022/03/06 04:55:42;;;;;;;;;78.25;61.75;;;;;7.51;48.18;101606.91;5060276;28;45271;-52
2022/03/06 04:58:07;;;;;;;;;77.25;59.75;;;;;7.47;48.03;101605.97;5060111;28;45944;-51
2022/03/06 05:00:33;;;;;;;;;77.75;58.25;;;;;7.44;48.38;101605.91;5060354;28;45418;-53
2022/03/06 05:02:58;;;;;;;;;74.25;56.75;;;;;7.42;48.44;101606.75;5060289;28;45223;-49
2022/03/06 05:05:24;;;;;;;;;80.50;61.25;;;;;7.40;48.48;101609.38;5059927;28;45422;-53
2022/03/06 05:07:49;;;;;;;;;78.25;60.00;;;;;7.39;48.28;101611.97;5059749;28;45328;-50
2022/03/06 05:10:15;;;;;;;;;79.00;60.25;;;;;7.32;48.38;101604.03;5059883;28;45411;-52
2022/03/06 05:12:41;;;;;;;;;81.25;60.25;;;;;7.36;48.51;101625.00;5060091;28;45376;-52
2022/03/06 05:15:08;;;;;;;;;75.50;59.25;;;;;7.36;48.49;101622.38;5059184;28;45736;-51
2022/03/06 05:17:33;;;;;;;;;76.50;58.50;;;;;7.33;48.35;101620.59;5059867;28;45363;-52
2022/03/06 05:19:59;;;;;;;;;78.00;59.50;;;;;7.30;48.29;101617.97;5059754;28;45395;-52
2022/03/06 05:22:25;;;;;;;;;77.75;60.75;;;;;7.30;48.36;101624.03;5058593;28;45347;-53
2022/03/06 05:24:50;;;;;;;;;77.00;59.33;;;;;7.28;48.57;101625.78;5059825;28;45310;-53
2022/03/06 05:27:15;;;;;;;;;80.50;59.75;;;;;7.26;48.55;101626.63;5059691;28;46212;-53
2022/03/06 05:29:41;;;;;;;;;77.50;59.00;;;;;7.24;48.50;101623.09;5058417;28;45366;-53
2022/03/06 05:32:06;;;;;;;;;78.75;60.50;;;;;7.21;48.40;101628.28;5058425;28;45374;-52
2022/03/06 05:34:32;;;;;;;;;78.50;59.50;;;;;7.19;48.67;101633.47;5062407;28;45406;-52
2022/03/06 05:36:57;;;;;;;;;73.75;58.25;;;;;7.18;48.61;101628.25;5059763;28;45247;-53
2022/03/06 05:39:23;;;;;;;;;80.00;60.00;;;;;7.13;48.64;101623.84;5059461;28;45216;-52
2022/03/06 05:41:48;;;;;;;;;78.75;59.25;;;;;7.08;48.60;101635.06;5058479;28;45337;-53
2022/03/06 05:44:13;;;;;;;;;80.75;60.25;;;;;7.07;48.51;101626.34;5058400;28;45332;-50
2022/03/06 05:46:39;;;;;;;;;75.25;60.00;;;;;7.04;48.67;101628.91;5059403;28;46168;-53
2022/03/06 05:49:12;;;;;;;;;80.50;61.00;;;;;7.03;48.65;101634.13;5059693;28;45217;-51
2022/03/06 05:51:42;;;;;;;;;75.50;57.25;;;;;7.00;48.55;101641.03;5059589;28;45259;-52
2022/03/06 05:54:08;;;;;;;;;78.75;58.50;;;;;6.98;48.54;101637.56;5059332;28;45600;-52
2022/03/06 05:56:34;;;;;;;;;79.00;58.75;;;;;6.94;48.64;101638.38;5059624;28;45469;-52
2022/03/06 05:59:00;;;;;;;;;81.67;61.33;;;;;6.95;48.74;101647.06;5059399;28;45260;-50
2022/03/06 06:01:28;;;;;;;;;84.00;62.33;;;;;6.93;48.67;101646.16;5059575;28;45447;-51
2022/03/06 06:03:53;;;;;;;;;79.50;60.75;;;;;6.92;48.60;101652.28;5059415;28;45350;-49
2022/03/06 06:06:18;;;;;;;;;79.33;60.00;;;;;6.89;48.95;101644.38;5059131;28;45292;-50
2022/03/06 06:08:44;;;;;;;;;82.00;62.00;;;;;6.89;48.95;101649.59;5057865;28;45490;-49
2022/03/06 06:11:09;;;;;;;;;79.50;57.25;;;;;6.86;48.81;101653.03;5059239;28;45391;-48
2022/03/06 06:13:34;;;;;;;;;78.25;59.75;;;;;6.85;48.85;101650.41;5059473;28;45244;-48
2022/03/06 06:16:01;;;;;;;;;81.67;64.33;;;;;6.83;48.78;101656.47;5059101;28;45228;-47
2022/03/06 06:18:27;;;;;;;;;77.50;59.75;;;;;6.82;48.71;101657.34;5059220;28;45296;-49
2022/03/06 06:20:55;;;;;;;;;76.00;61.00;;;;;6.79;48.81;101665.13;5059047;28;45510;-49
2022/03/06 06:23:20;;;;;;;;;79.00;59.75;;;;;6.78;48.84;101663.38;5058041;28;45288;-49
2022/03/06 06:25:46;;;;;;;;;82.50;62.00;;;;;6.79;48.91;101666.84;5059375;28;45280;-49
2022/03/06 06:28:11;;;;;;;;;83.67;62.00;;;;;6.78;48.91;101663.38;5062611;28;45426;-48
2022/03/06 06:30:37;;;;;;;;;82.50;62.00;;;;;6.76;48.73;101661.59;5062666;28;45268;-53
2022/03/06 06:33:02;;;;;;;;;76.67;59.67;;;;;6.74;48.99;101672.03;5061306;28;46192;-52
2022/03/06 06:35:28;;;;;;;;;81.00;62.00;;;;;6.73;48.74;101662.41;5066253;28;45893;-52
2022/03/06 06:37:53;;;;;;;;;81.33;63.00;;;;;6.71;48.88;101669.34;5061138;28;45259;-51
2022/03/06 06:40:18;;;;;;;;;80.00;61.33;;;;;6.70;48.80;101669.31;5062452;28;45195;-50
2022/03/06 06:42:44;;;;;;;;;76.33;59.00;;;;;6.69;48.99;101680.63;5062456;28;45244;-49
2022/03/06 06:45:10;;;;;;;;;93.00;79.33;;;;;6.66;48.87;101671.00;5061008;28;47273;-53
2022/03/06 06:47:36;;;;;;;;;86.33;67.00;;;;;6.63;49.11;101678.81;5062340;28;45253;-51
2022/03/06 06:50:03;;;;;;;;;85.67;67.67;;;;;6.63;48.97;101681.41;5062114;28;45393;-50
2022/03/06 06:52:28;;;;;;;;;82.33;61.00;;;;;6.63;48.71;101691.88;5062205;28;45413;-53
2022/03/06 06:54:53;;;;;;;;;84.33;63.33;;;;;6.62;48.82;101700.53;5060690;28;48458;-50
2022/03/06 06:57:19;;;;;;;;;74.67;58.33;;;;;6.59;49.10;101697.88;5060964;28;45650;-52
2022/03/06 06:59:44;;;;;;;;;74.25;58.25;;;;;6.58;48.88;101699.59;5062116;28;45245;-49
2022/03/06 07:02:09;;;;;;;;;81.00;61.33;;;;;6.56;49.08;101703.06;5062097;28;45245;-52
2022/03/06 07:04:35;;;;;;;;;79.67;62.67;;;;;6.53;49.08;101696.03;5060616;28;46214;-53
2022/03/06 07:07:00;;;;;;;;;54.00;33.33;;;;;6.53;49.17;101702.97;5060221;28;45583;-51
2022/03/06 07:09:25;;;;;;;;;83.00;64.00;;;;;6.54;49.00;101709.97;5060436;28;45316;-52
2022/03/06 07:11:51;;;;;;;;;79.67;61.33;;;;;6.52;48.96;101707.34;5043761;28;45444;-50
2022/03/06 07:14:16;;;;;;;;;82.33;64.33;;;;;6.54;49.01;101712.56;5060471;28;47826;-51
2022/03/06 07:16:45;;;;;;;;;81.00;60.00;;;;;6.54;49.20;101707.34;5061926;28;45330;-52
2022/03/06 07:19:10;;;;;;;;;80.33;61.33;;;;;6.54;49.18;101704.75;5060559;28;45244;-52
2022/03/06 07:21:37;;;;;;;;;85.33;64.33;;;;;6.54;49.30;101709.97;5061549;28;45129;-51
2022/03/06 07:24:03;;;;;;;;;78.33;60.00;;;;;6.53;49.26;101716.03;5061421;28;45247;-51
2022/03/06 07:26:29;;;;;;;;;81.67;64.33;;;;;6.52;49.22;101714.31;5060393;28;45407;-51
2022/03/06 07:28:54;;;;;;;;;76.33;60.33;;;;;6.54;49.36;101723.03;5060501;28;45253;-52
2022/03/06 07:31:19;;;;;;;;;76.00;60.33;;;;;6.54;49.16;101726.53;5061615;28;45342;-52
2022/03/06 07:33:45;;;;;;;;;81.00;62.00;;;;;6.53;49.07;101727.38;5061328;28;46203;-49
2022/03/06 07:36:11;;;;;;;;;83.67;63.33;;;;;6.53;49.22;101729.09;5065231;28;45310;-52
2022/03/06 07:38:36;;;;;;;;;80.33;60.67;;;;;6.53;49.08;101730.00;5060725;28;45416;-49
2022/03/06 07:41:02;;;;;;;;;87.00;68.33;;;;;6.54;49.27;101733.47;5061342;28;45370;-51
2022/03/06 07:43:27;;;;;;;;;83.00;64.00;;;;;6.50;48.98;101733.44;5061180;28;46293;-51
2022/03/06 07:45:52;;;;;;;;;82.33;62.33;;;;;6.54;49.14;101741.31;5060327;28;45274;-51
2022/03/06 07:48:18;;;;;;;;;79.33;56.33;;;;;6.54;49.17;101741.31;5061587;28;45647;-51
2022/03/06 07:50:43;;;;;;;;;80.00;60.67;;;;;6.54;49.30;101744.81;5061178;28;45216;-52
2022/03/06 07:53:08;;;;;;;;;75.67;60.00;;;;;6.53;49.27;101742.16;5061089;28;45323;-52
2022/03/06 07:55:34;;;;;;;;;82.67;63.67;;;;;6.55;49.35;101743.06;5061105;28;45223;-52
2022/03/06 07:57:59;;;;;;;;;81.33;64.00;;;;;6.52;49.18;101746.50;5061189;28;45331;-52
2022/03/06 08:00:24;;;;;;;;;80.67;62.33;;;;;6.57;49.20;101757.06;5061318;28;45360;-50
2022/03/06 08:02:50;;;;;;;;;79.67;61.33;;;;;6.57;49.45;101762.28;5060970;28;46110;-52
2022/03/06 08:05:15;;;;;;;;;81.67;62.67;;;;;6.58;49.29;101764.91;5059640;28;45288;-52
2022/03/06 08:07:41;;;;;;;;;76.67;60.67;;;;;6.57;49.34;101760.53;5060882;28;45319;-52
2022/03/06 08:10:08;;;;;;;;;80.33;60.67;;;;;6.61;49.28;101778.00;5060875;28;45215;-53
2022/03/06 08:12:33;;;;;;;;;77.00;59.67;;;;;6.63;49.29;101765.00;5060859;28;45451;-50
2022/03/06 08:14:59;;;;;;;;;84.67;62.67;;;;;6.64;49.36;101775.47;5060920;28;45326;-52
2022/03/06 08:17:25;;;;;;;;;81.33;63.00;;;;;6.64;49.34;101771.97;5042900;28;45325;-49
2022/03/06 08:19:50;;;;;;;;;80.00;60.33;;;;;6.66;49.44;101771.13;5060651;28;45422;-51
2022/03/06 08:22:16;;;;;;;;;79.00;59.00;;;;;6.70;49.28;101781.66;5060720;28;46083;-52
2022/03/06 08:24:41;;;;;;;;;78.50;60.25;;;;;6.69;49.22;101785.13;5060854;28;45371;-52
2022/03/06 08:27:07;;;;;;;;;80.00;59.33;;;;;6.73;49.39;101787.81;5060898;28;45307;-51
2022/03/06 08:29:32;;;;;;;;;78.00;58.67;;;;;6.76;49.16;101792.22;5059323;28;45487;-50
2022/03/06 08:31:58;;;;;;;;;76.25;58.00;;;;;6.79;49.37;101795.78;5060485;28;45261;-53
2022/03/06 08:34:23;;;;;;;;;80.50;60.50;;;;;6.80;49.43;101789.66;5062360;28;45456;-52
2022/03/06 08:36:49;;;;;;;;;74.50;58.00;;;;;6.88;49.24;101804.63;5063623;27;45243;-49
2022/03/06 08:39:14;;;;;;;;;79.00;59.75;;;;;6.90;49.42;101792.47;5060506;28;45501;-50
2022/03/06 08:41:40;;;;;;;;;80.50;61.00;;;;;6.94;49.28;101795.19;5058970;28;47983;-52
2022/03/06 08:44:05;;;;;;;;;74.75;60.00;;;;;6.98;49.28;101794.38;5060499;28;45262;-50
2022/03/06 08:46:30;;;;;;;;;78.00;59.00;;;;;7.03;49.45;101794.47;5060513;28;45248;-53
2022/03/06 08:48:56;;;;;;;;;81.75;60.00;;;;;7.06;49.29;101783.16;5059982;28;45352;-51
2022/03/06 08:51:21;;;;;;;;;78.50;60.25;;;;;7.12;49.23;101786.75;5059456;28;45419;-53
2022/03/06 08:53:47;;;;;;;;;76.33;58.00;;;;;7.14;49.18;101785.06;5059175;28;45315;-52
2022/03/06 08:56:12;;;;;;;;;77.25;57.00;;;;;7.24;49.21;101790.44;5060056;28;45420;-51
2022/03/06 08:58:37;;;;;;;;;72.25;57.00;;;;;7.28;49.39;101790.50;5060260;28;45566;-50
2022/03/06 09:01:03;;;;;;;;;70.75;56.25;;;;;7.35;49.26;101799.31;5060273;28;46326;-50
2022/03/06 09:03:28;;;;;;;;;76.50;58.00;;;;;7.42;49.20;101803.81;5060169;27;45355;-51
2022/03/06 09:05:54;;;;;;;;;69.75;53.50;;;;;7.46;49.14;101791.66;5060001;28;45255;-51
2022/03/06 09:08:19;;;;;;;;;72.00;55.25;;;;;7.56;49.11;101795.28;5060084;28;45337;-51
2022/03/06 09:10:45;;;;;;;;;72.75;56.25;;;;;7.64;49.22;101799.75;5059698;28;45346;-52
2022/03/06 09:13:10;;;;;;;;;69.50;52.75;;;;;7.73;49.26;101798.16;5058720;28;45535;-52
2022/03/06 09:15:37;;;;;;;;;71.25;55.75;;;;;7.82;49.16;101803.50;5059929;28;45244;-50
2022/03/06 09:18:04;;;;;;;;;75.25;54.00;;;;;7.89;49.22;101801.88;5060121;28;45288;-50
2022/03/06 09:20:29;;;;;;;;;69.25;53.00;;;;;7.96;49.13;101794.13;5058208;28;47692;-52
2022/03/06 09:22:55;;;;;;;;;69.50;53.75;;;;;8.06;49.02;101802.09;5042192;28;45296;-55
2022/03/06 09:25:20;;;;;;;;;67.00;52.50;;;;;8.16;48.81;101796.09;5059787;28;45289;-52
2022/03/06 09:27:46;;;;;;;;;71.00;55.25;;;;;8.25;48.82;101801.47;5059883;28;45470;-49
2022/03/06 09:30:12;;;;;;;;;70.25;54.00;;;;;8.35;48.83;101798.97;5059374;28;46134;-50
2022/03/06 09:32:38;;;;;;;;;67.00;53.50;;;;;8.44;48.64;101799.94;5058687;28;45335;-52
2022/03/06 09:35:04;;;;;;;;;75.75;56.50;;;;;8.51;48.87;101798.31;5063233;28;45344;-48
2022/03/06 09:37:29;;;;;;;;;77.00;54.50;;;;;8.65;48.45;101813.31;5058426;28;45399;-50
2022/03/06 09:39:54;;;;;;;;;63.75;50.00;;;;;8.73;48.67;101801.16;5059389;28;46153;-48
2022/03/06 09:42:22;;;;;;;;;68.25;51.75;;;;;8.86;48.77;101805.66;5059791;28;45315;-51
2022/03/06 09:44:49;;;;;;;;;64.25;51.25;;;;;8.98;48.85;101804.91;5059664;28;45478;-51
2022/03/06 09:47:15;;;;;;;;;69.25;53.00;;;;;9.10;48.54;101812.00;5059853;28;45186;-49
2022/03/06 09:49:45;;;;;;;;;69.00;53.00;;;;;9.21;48.83;101807.72;5057795;28;48167;-48
2022/03/06 09:52:12;;;;;;;;;62.50;49.75;;;;;9.33;48.39;101817.44;5059825;28;45378;-48
2022/03/06 09:54:37;;;;;;;;;67.25;49.75;;;;;9.46;48.70;101814.91;5058095;28;45393;-53
2022/03/06 09:57:04;;;;;;;;;62.00;51.00;;;;;9.55;48.52;101807.13;5059523;28;45417;-49
2022/03/06 09:59:31;;;;;;;;;59.50;47.75;;;;;9.69;48.51;101818.59;5059141;28;46208;-49
2022/03/06 10:02:04;;;;;;;;;64.50;48.75;;;;;9.81;48.47;101822.16;5060544;28;45177;-51
2022/03/06 10:04:32;;;;;;;;;65.00;48.75;;;;;9.93;48.49;101827.50;5063087;28;45672;-48
2022/03/06 10:07:13;;;;;;;;;60.25;46.25;;;;;10.05;48.25;101813.53;5062894;28;45394;-52
2022/03/06 10:09:43;;;;;;;;;60.00;45.50;;;;;10.20;48.22;101821.50;5062836;28;45277;-52
2022/03/06 10:12:28;;;;;;;;;56.50;44.00;;;;;10.35;48.34;101825.06;5062798;28;45536;-52
2022/03/06 10:14:55;;;;;;;;;55.00;44.67;;;;;10.48;47.95;101823.41;5062934;28;45369;-50
2022/03/06 10:17:23;;;;;;;;;53.75;41.75;;;;;10.60;47.95;101820.78;5062728;28;45303;-52
2022/03/06 10:20:01;;;;;;;;;52.25;41.25;;;;;10.72;47.87;101815.56;5061126;28;48288;-51
2022/03/06 10:22:38;;;;;;;;;52.25;42.25;;;;;10.88;47.71;101826.16;5061447;28;45226;-48
2022/03/06 10:25:16;;;;;;;;;50.75;40.25;;;;;11.00;47.74;101812.13;5062790;28;45341;-53
2022/03/06 10:27:57;;;;;;;;;47.75;39.50;;;;;11.13;47.71;101813.00;5062716;28;45257;-51
2022/03/06 10:30:33;;;;;;;;;50.00;41.00;;;;;11.27;47.59;101811.28;5062344;28;46082;-52
2022/03/06 10:33:00;;;;;;;;;51.25;39.75;;;;;11.38;47.48;101805.97;5061297;28;46058;-51
2022/03/06 10:35:34;;;;;;;;;47.75;38.50;;;;;11.50;47.01;101813.88;5065924;28;45342;-51
2022/03/06 10:38:00;;;;;;;;;47.25;38.00;;;;;11.63;46.97;101814.72;5044293;28;45476;-52
2022/03/06 10:40:37;;;;;;;;;44.25;36.50;;;;;11.75;46.97;101808.59;5062383;28;45604;-53
2022/03/06 10:43:19;;;;;;;;;39.00;34.75;;;;;11.89;46.90;101810.31;5062554;28;45364;-50
2022/03/06 10:45:45;;;;;;;;;40.25;35.75;;;;;11.97;46.43;101817.31;5062587;28;45525;-49
2022/03/06 10:48:11;;;;;;;;;37.00;32.50;;;;;12.09;46.44;101807.63;5062329;28;45339;-49
2022/03/06 10:50:37;;;;;;;;;42.25;36.25;;;;;12.18;46.54;101810.25;5061874;27;46023;-53
2022/03/06 10:53:25;;;;;;;;;33.00;31.00;;;;;12.32;46.26;101812.81;5062248;28;45454;-50
2022/03/06 10:55:51;;;;;;;;;35.75;33.00;;;;;12.41;46.26;101814.53;5062197;28;45450;-52
2022/03/06 10:58:21;;;;;;;;;37.25;32.25;;;;;12.50;46.34;101803.94;5060984;28;45486;-53
2022/03/06 11:00:48;;;;;;;;;37.00;31.50;;;;;12.61;45.91;101801.25;5062172;28;46328;-54
2022/03/06 11:03:14;;;;;;;;;37.75;32.25;;;;;12.70;45.78;101803.81;5062211;28;45252;-52
2022/03/06 11:05:42;;;;;;;;;46.25;38.50;;;;;12.82;45.96;101806.38;5060604;28;45272;-54
2022/03/06 11:08:11;;;;;;;;;39.00;32.25;;;;;12.92;45.74;101803.72;5061883;28;45359;-55
2022/03/06 11:10:40;;;;;;;;;36.25;30.00;;;;;13.06;45.45;101808.88;5061613;28;45485;-52